sensor_id;sensor_type;location;lat;lon;timestamp;P1;durP1;ratioP1;P2;durP2;ratioP2
14883;SDS011;7534;50.762;7.000;2024-01-15T00:02:09;18.33;;;10.87;;
14883;SDS011;7534;50.762;7.000;2024-01-15T00:04:41;17.00;;;10.57;;
14883;SDS011;7534;50.762;7.000;2024-01-15T00:07:07;17.97;;;10.20;;
14883;SDS011;7534;50.762;7.000;2024-01-15T00:09:33;17.23;;;10.70;;
14883;SDS011;7534;50.762;7.000;2024-01-15T00:12:01;18.73;;;10.17;;
14883;SDS011;7534;50.762;7.000;2024-01-15T00:14:27;18.10;;;10.53;;
14883;SDS011;7534;50.762;7.000;2024-01-15T00:16:53;16.00;;;9.57;;
14883;SDS011;7534;50.762;7.000;2024-01-15T00:19:20;18.73;;;11.67;;
14883;SDS011;7534;50.762;7.000;2024-01-15T00:21:47;19.07;;;11.73;;
14883;SDS011;7534;50.762;7.000;2024-01-15T00:24:13;20.47;;;11.90;;
14883;SDS011;7534;50.762;7.000;2024-01-15T00:26:39;20.13;;;12.33;;
14883;SDS011;7534;50.762;7.000;2024-01-15T00:29:06;17.83;;;11.60;;
14883;SDS011;7534;50.762;7.000;2024-01-15T00:31:33;21.67;;;12.73;;
14883;SDS011;7534;50.762;7.000;2024-01-15T00:33:59;20.47;;;11.50;;
14883;SDS011;7534;50.762;7.000;2024-01-15T00:36:24;22.60;;;11.77;;
14883;SDS011;7534;50.762;7.000;2024-01-15T00:38:51;20.43;;;12.13;;
14883;SDS011;7534;50.762;7.000;2024-01-15T00:41:18;18.57;;;11.90;;
14883;SDS011;7534;50.762;7.000;2024-01-15T00:43:47;19.23;;;12.37;;
14883;SDS011;7534;50.762;7.000;2024-01-15T00:46:14;22.27;;;13.00;;
14883;SDS011;7534;50.762;7.000;2024-01-15T00:48:41;19.43;;;11.70;;
14883;SDS011;7534;50.762;7.000;2024-01-15T00:51:07;21.60;;;13.73;;
14883;SDS011;7534;50.762;7.000;2024-01-15T00:53:33;21.60;;;13.10;;
14883;SDS011;7534;50.762;7.000;2024-01-15T00:55:59;21.07;;;12.47;;
14883;SDS011;7534;50.762;7.000;2024-01-15T00:58:25;20.27;;;11.60;;
14883;SDS011;7534;50.762;7.000;2024-01-15T01:00:51;21.43;;;13.17;;
14883;SDS011;7534;50.762;7.000;2024-01-15T01:03:17;21.50;;;12.30;;
14883;SDS011;7534;50.762;7.000;2024-01-15T01:05:44;22.73;;;12.60;;
14883;SDS011;7534;50.762;7.000;2024-01-15T01:08:10;19.97;;;11.43;;
14883;SDS011;7534;50.762;7.000;2024-01-15T01:10:35;19.30;;;11.93;;
14883;SDS011;7534;50.762;7.000;2024-01-15T01:13:02;19.53;;;12.80;;
14883;SDS011;7534;50.762;7.000;2024-01-15T01:15:28;17.83;;;11.73;;
14883;SDS011;7534;50.762;7.000;2024-01-15T01:17:53;21.70;;;11.83;;
14883;SDS011;7534;50.762;7.000;2024-01-15T01:20:19;21.10;;;11.70;;
14883;SDS011;7534;50.762;7.000;2024-01-15T01:22:46;18.83;;;11.53;;
14883;SDS011;7534;50.762;7.000;2024-01-15T01:25:11;21.00;;;12.13;;
14883;SDS011;7534;50.762;7.000;2024-01-15T01:27:37;19.17;;;11.57;;
14883;SDS011;7534;50.762;7.000;2024-01-15T01:30:03;20.13;;;12.13;;
14883;SDS011;7534;50.762;7.000;2024-01-15T01:32:30;20.70;;;13.00;;
14883;SDS011;7534;50.762;7.000;2024-01-15T01:34:55;19.03;;;12.23;;
14883;SDS011;7534;50.762;7.000;2024-01-15T01:37:21;22.33;;;12.90;;
14883;SDS011;7534;50.762;7.000;2024-01-15T01:39:46;21.30;;;13.23;;
14883;SDS011;7534;50.762;7.000;2024-01-15T01:42:12;24.30;;;14.47;;
14883;SDS011;7534;50.762;7.000;2024-01-15T01:44:38;21.87;;;14.10;;
14883;SDS011;7534;50.762;7.000;2024-01-15T01:47:04;24.43;;;13.77;;
14883;SDS011;7534;50.762;7.000;2024-01-15T01:49:30;24.07;;;13.00;;
14883;SDS011;7534;50.762;7.000;2024-01-15T01:51:57;25.70;;;13.93;;
14883;SDS011;7534;50.762;7.000;2024-01-15T01:54:25;20.13;;;12.63;;
14883;SDS011;7534;50.762;7.000;2024-01-15T01:56:54;21.67;;;13.57;;
14883;SDS011;7534;50.762;7.000;2024-01-15T01:59:22;21.50;;;12.70;;
14883;SDS011;7534;50.762;7.000;2024-01-15T02:01:49;20.47;;;12.63;;
14883;SDS011;7534;50.762;7.000;2024-01-15T02:04:16;23.57;;;12.97;;
14883;SDS011;7534;50.762;7.000;2024-01-15T02:06:42;23.83;;;13.63;;
14883;SDS011;7534;50.762;7.000;2024-01-15T02:09:08;23.17;;;13.17;;
14883;SDS011;7534;50.762;7.000;2024-01-15T02:11:35;20.80;;;13.63;;
14883;SDS011;7534;50.762;7.000;2024-01-15T02:14:01;22.43;;;13.57;;
14883;SDS011;7534;50.762;7.000;2024-01-15T02:19:24;22.00;;;13.47;;
14883;SDS011;7534;50.762;7.000;2024-01-15T02:21:50;22.00;;;14.37;;
14883;SDS011;7534;50.762;7.000;2024-01-15T02:24:15;24.37;;;14.43;;
14883;SDS011;7534;50.762;7.000;2024-01-15T02:26:41;22.63;;;13.53;;
14883;SDS011;7534;50.762;7.000;2024-01-15T02:29:07;24.03;;;14.03;;
14883;SDS011;7534;50.762;7.000;2024-01-15T02:31:34;25.13;;;14.37;;
14883;SDS011;7534;50.762;7.000;2024-01-15T02:34:01;21.17;;;13.70;;
14883;SDS011;7534;50.762;7.000;2024-01-15T02:36:26;23.63;;;14.07;;
14883;SDS011;7534;50.762;7.000;2024-01-15T02:38:52;23.53;;;14.20;;
14883;SDS011;7534;50.762;7.000;2024-01-15T02:41:18;21.53;;;13.23;;
14883;SDS011;7534;50.762;7.000;2024-01-15T02:43:43;23.90;;;13.63;;
14883;SDS011;7534;50.762;7.000;2024-01-15T02:46:09;17.63;;;11.07;;
14883;SDS011;7534;50.762;7.000;2024-01-15T02:48:35;22.63;;;13.60;;
14883;SDS011;7534;50.762;7.000;2024-01-15T02:51:00;23.27;;;14.50;;
14883;SDS011;7534;50.762;7.000;2024-01-15T02:53:27;22.43;;;14.03;;
14883;SDS011;7534;50.762;7.000;2024-01-15T02:55:52;24.23;;;14.47;;
14883;SDS011;7534;50.762;7.000;2024-01-15T02:58:18;21.17;;;13.80;;
14883;SDS011;7534;50.762;7.000;2024-01-15T03:00:44;24.73;;;14.37;;
14883;SDS011;7534;50.762;7.000;2024-01-15T03:03:11;21.60;;;14.23;;
14883;SDS011;7534;50.762;7.000;2024-01-15T03:05:37;22.50;;;13.50;;
14883;SDS011;7534;50.762;7.000;2024-01-15T03:08:03;23.57;;;13.87;;
14883;SDS011;7534;50.762;7.000;2024-01-15T03:10:29;24.27;;;13.93;;
14883;SDS011;7534;50.762;7.000;2024-01-15T03:12:55;21.87;;;14.10;;
14883;SDS011;7534;50.762;7.000;2024-01-15T03:15:20;22.00;;;14.03;;
14883;SDS011;7534;50.762;7.000;2024-01-15T03:17:46;21.00;;;13.83;;
14883;SDS011;7534;50.762;7.000;2024-01-15T03:20:11;20.40;;;12.73;;
14883;SDS011;7534;50.762;7.000;2024-01-15T03:22:37;20.47;;;13.20;;
14883;SDS011;7534;50.762;7.000;2024-01-15T03:25:03;20.40;;;12.97;;
14883;SDS011;7534;50.762;7.000;2024-01-15T03:27:30;21.93;;;13.73;;
14883;SDS011;7534;50.762;7.000;2024-01-15T03:29:56;20.20;;;13.43;;
14883;SDS011;7534;50.762;7.000;2024-01-15T03:32:22;19.70;;;14.07;;
14883;SDS011;7534;50.762;7.000;2024-01-15T03:34:47;19.63;;;13.17;;
14883;SDS011;7534;50.762;7.000;2024-01-15T03:37:14;20.27;;;13.23;;
14883;SDS011;7534;50.762;7.000;2024-01-15T03:39:40;21.13;;;12.73;;
14883;SDS011;7534;50.762;7.000;2024-01-15T03:42:06;19.23;;;13.10;;
14883;SDS011;7534;50.762;7.000;2024-01-15T03:44:31;20.30;;;13.37;;
14883;SDS011;7534;50.762;7.000;2024-01-15T03:46:57;18.83;;;13.03;;
14883;SDS011;7534;50.762;7.000;2024-01-15T03:49:23;23.17;;;14.63;;
14883;SDS011;7534;50.762;7.000;2024-01-15T03:51:49;20.13;;;13.90;;
14883;SDS011;7534;50.762;7.000;2024-01-15T03:54:14;23.77;;;15.23;;
14883;SDS011;7534;50.762;7.000;2024-01-15T03:56:40;19.50;;;14.03;;
14883;SDS011;7534;50.762;7.000;2024-01-15T03:59:06;20.87;;;13.27;;
14883;SDS011;7534;50.762;7.000;2024-01-15T04:01:31;21.23;;;14.57;;
14883;SDS011;7534;50.762;7.000;2024-01-15T04:03:57;25.63;;;15.13;;
14883;SDS011;7534;50.762;7.000;2024-01-15T04:06:23;21.67;;;14.73;;
14883;SDS011;7534;50.762;7.000;2024-01-15T04:08:49;22.37;;;14.50;;
14883;SDS011;7534;50.762;7.000;2024-01-15T04:11:15;20.50;;;13.40;;
14883;SDS011;7534;50.762;7.000;2024-01-15T04:13:41;23.17;;;14.27;;
14883;SDS011;7534;50.762;7.000;2024-01-15T04:16:06;19.00;;;13.37;;
14883;SDS011;7534;50.762;7.000;2024-01-15T04:18:32;20.93;;;13.23;;
14883;SDS011;7534;50.762;7.000;2024-01-15T04:20:58;17.53;;;12.23;;
14883;SDS011;7534;50.762;7.000;2024-01-15T04:23:23;19.53;;;12.07;;
14883;SDS011;7534;50.762;7.000;2024-01-15T04:25:49;19.70;;;12.80;;
14883;SDS011;7534;50.762;7.000;2024-01-15T04:28:15;19.67;;;13.40;;
14883;SDS011;7534;50.762;7.000;2024-01-15T04:30:40;18.80;;;12.67;;
14883;SDS011;7534;50.762;7.000;2024-01-15T04:33:06;17.63;;;11.87;;
14883;SDS011;7534;50.762;7.000;2024-01-15T04:35:32;16.43;;;11.70;;
14883;SDS011;7534;50.762;7.000;2024-01-15T04:37:58;15.57;;;11.20;;
14883;SDS011;7534;50.762;7.000;2024-01-15T04:40:24;15.37;;;11.73;;
14883;SDS011;7534;50.762;7.000;2024-01-15T04:42:52;16.30;;;11.37;;
14883;SDS011;7534;50.762;7.000;2024-01-15T04:45:19;15.27;;;10.80;;
14883;SDS011;7534;50.762;7.000;2024-01-15T04:47:47;16.43;;;10.97;;
14883;SDS011;7534;50.762;7.000;2024-01-15T04:50:14;17.10;;;11.07;;
14883;SDS011;7534;50.762;7.000;2024-01-15T04:52:39;15.77;;;10.23;;
14883;SDS011;7534;50.762;7.000;2024-01-15T04:55:05;17.03;;;10.97;;
14883;SDS011;7534;50.762;7.000;2024-01-15T04:57:31;13.53;;;10.20;;
14883;SDS011;7534;50.762;7.000;2024-01-15T04:59:57;15.33;;;10.23;;
14883;SDS011;7534;50.762;7.000;2024-01-15T05:02:22;14.77;;;9.87;;
14883;SDS011;7534;50.762;7.000;2024-01-15T05:04:48;15.40;;;10.20;;
14883;SDS011;7534;50.762;7.000;2024-01-15T05:07:14;14.47;;;9.57;;
14883;SDS011;7534;50.762;7.000;2024-01-15T05:09:39;14.57;;;10.53;;
14883;SDS011;7534;50.762;7.000;2024-01-15T05:12:05;15.03;;;10.67;;
14883;SDS011;7534;50.762;7.000;2024-01-15T05:14:31;15.77;;;10.63;;
14883;SDS011;7534;50.762;7.000;2024-01-15T05:16:56;16.50;;;10.90;;
14883;SDS011;7534;50.762;7.000;2024-01-15T05:19:22;14.33;;;10.03;;
14883;SDS011;7534;50.762;7.000;2024-01-15T05:21:48;15.37;;;10.70;;
14883;SDS011;7534;50.762;7.000;2024-01-15T05:24:14;17.00;;;11.23;;
14883;SDS011;7534;50.762;7.000;2024-01-15T05:26:39;18.43;;;11.30;;
14883;SDS011;7534;50.762;7.000;2024-01-15T05:29:05;16.17;;;10.80;;
14883;SDS011;7534;50.762;7.000;2024-01-15T05:31:30;17.63;;;10.87;;
14883;SDS011;7534;50.762;7.000;2024-01-15T05:33:56;19.03;;;11.67;;
14883;SDS011;7534;50.762;7.000;2024-01-15T05:36:22;17.50;;;12.37;;
14883;SDS011;7534;50.762;7.000;2024-01-15T05:38:47;19.33;;;12.53;;
14883;SDS011;7534;50.762;7.000;2024-01-15T05:41:14;19.97;;;13.07;;
14883;SDS011;7534;50.762;7.000;2024-01-15T05:43:40;18.83;;;12.13;;
14883;SDS011;7534;50.762;7.000;2024-01-15T05:46:05;18.63;;;12.67;;
14883;SDS011;7534;50.762;7.000;2024-01-15T05:48:31;17.17;;;11.80;;
14883;SDS011;7534;50.762;7.000;2024-01-15T05:50:57;15.60;;;12.07;;
14883;SDS011;7534;50.762;7.000;2024-01-15T05:53:22;17.03;;;11.93;;
14883;SDS011;7534;50.762;7.000;2024-01-15T05:55:48;19.17;;;12.50;;
14883;SDS011;7534;50.762;7.000;2024-01-15T05:58:14;21.70;;;13.27;;
14883;SDS011;7534;50.762;7.000;2024-01-15T06:00:39;22.23;;;13.20;;
14883;SDS011;7534;50.762;7.000;2024-01-15T06:03:05;19.77;;;13.23;;
14883;SDS011;7534;50.762;7.000;2024-01-15T06:05:31;18.53;;;12.40;;
14883;SDS011;7534;50.762;7.000;2024-01-15T06:07:56;17.57;;;12.50;;
14883;SDS011;7534;50.762;7.000;2024-01-15T06:10:22;16.27;;;11.90;;
14883;SDS011;7534;50.762;7.000;2024-01-15T06:12:48;17.70;;;12.07;;
14883;SDS011;7534;50.762;7.000;2024-01-15T06:15:13;17.67;;;12.40;;
14883;SDS011;7534;50.762;7.000;2024-01-15T06:17:39;17.20;;;12.27;;
14883;SDS011;7534;50.762;7.000;2024-01-15T06:20:05;18.73;;;12.23;;
14883;SDS011;7534;50.762;7.000;2024-01-15T06:22:31;18.83;;;13.30;;
14883;SDS011;7534;50.762;7.000;2024-01-15T06:24:57;20.77;;;13.40;;
14883;SDS011;7534;50.762;7.000;2024-01-15T06:27:23;17.80;;;12.30;;
14883;SDS011;7534;50.762;7.000;2024-01-15T06:29:48;21.00;;;13.03;;
14883;SDS011;7534;50.762;7.000;2024-01-15T06:32:14;20.07;;;13.30;;
14883;SDS011;7534;50.762;7.000;2024-01-15T06:34:40;18.87;;;13.10;;
14883;SDS011;7534;50.762;7.000;2024-01-15T06:37:06;17.97;;;11.77;;
14883;SDS011;7534;50.762;7.000;2024-01-15T06:39:33;20.63;;;13.43;;
14883;SDS011;7534;50.762;7.000;2024-01-15T06:41:59;15.67;;;12.37;;
14883;SDS011;7534;50.762;7.000;2024-01-15T06:44:25;19.40;;;12.80;;
14883;SDS011;7534;50.762;7.000;2024-01-15T06:46:50;16.87;;;12.83;;
14883;SDS011;7534;50.762;7.000;2024-01-15T06:49:16;18.00;;;12.20;;
14883;SDS011;7534;50.762;7.000;2024-01-15T06:51:42;17.43;;;13.07;;
14883;SDS011;7534;50.762;7.000;2024-01-15T06:54:08;19.93;;;13.17;;
14883;SDS011;7534;50.762;7.000;2024-01-15T06:56:33;18.37;;;13.00;;
14883;SDS011;7534;50.762;7.000;2024-01-15T06:58:59;18.77;;;12.20;;
14883;SDS011;7534;50.762;7.000;2024-01-15T07:01:25;19.53;;;13.03;;
14883;SDS011;7534;50.762;7.000;2024-01-15T07:03:50;18.23;;;13.90;;
14883;SDS011;7534;50.762;7.000;2024-01-15T07:06:16;19.27;;;13.03;;
14883;SDS011;7534;50.762;7.000;2024-01-15T07:08:43;20.93;;;12.93;;
14883;SDS011;7534;50.762;7.000;2024-01-15T07:11:08;21.53;;;13.30;;
14883;SDS011;7534;50.762;7.000;2024-01-15T07:13:35;19.17;;;13.30;;
14883;SDS011;7534;50.762;7.000;2024-01-15T07:16:01;19.10;;;13.47;;
14883;SDS011;7534;50.762;7.000;2024-01-15T07:18:27;19.97;;;13.43;;
14883;SDS011;7534;50.762;7.000;2024-01-15T07:20:53;19.77;;;12.67;;
14883;SDS011;7534;50.762;7.000;2024-01-15T07:23:19;21.33;;;13.70;;
14883;SDS011;7534;50.762;7.000;2024-01-15T07:25:44;19.47;;;12.47;;
14883;SDS011;7534;50.762;7.000;2024-01-15T07:28:10;19.20;;;12.47;;
14883;SDS011;7534;50.762;7.000;2024-01-15T07:30:37;16.77;;;12.87;;
14883;SDS011;7534;50.762;7.000;2024-01-15T07:33:04;18.27;;;11.50;;
14883;SDS011;7534;50.762;7.000;2024-01-15T07:35:30;18.50;;;11.27;;
14883;SDS011;7534;50.762;7.000;2024-01-15T07:37:56;16.40;;;11.30;;
14883;SDS011;7534;50.762;7.000;2024-01-15T07:40:22;22.33;;;11.70;;
14883;SDS011;7534;50.762;7.000;2024-01-15T07:42:49;18.00;;;11.17;;
14883;SDS011;7534;50.762;7.000;2024-01-15T07:45:16;16.43;;;10.97;;
14883;SDS011;7534;50.762;7.000;2024-01-15T07:47:42;19.03;;;11.03;;
14883;SDS011;7534;50.762;7.000;2024-01-15T07:50:09;14.60;;;10.90;;
14883;SDS011;7534;50.762;7.000;2024-01-15T07:52:34;17.17;;;10.60;;
14883;SDS011;7534;50.762;7.000;2024-01-15T07:55:00;15.63;;;10.00;;
14883;SDS011;7534;50.762;7.000;2024-01-15T07:57:28;15.73;;;10.60;;
14883;SDS011;7534;50.762;7.000;2024-01-15T07:59:54;15.83;;;10.43;;
14883;SDS011;7534;50.762;7.000;2024-01-15T08:02:20;14.97;;;10.20;;
14883;SDS011;7534;50.762;7.000;2024-01-15T08:04:46;16.07;;;10.33;;
14883;SDS011;7534;50.762;7.000;2024-01-15T08:07:12;14.93;;;9.77;;
14883;SDS011;7534;50.762;7.000;2024-01-15T08:09:38;16.70;;;11.90;;
14883;SDS011;7534;50.762;7.000;2024-01-15T08:12:04;15.38;;;11.77;;
14883;SDS011;7534;50.762;7.000;2024-01-15T08:14:31;13.83;;;9.07;;
14883;SDS011;7534;50.762;7.000;2024-01-15T08:16:57;14.27;;;8.93;;
14883;SDS011;7534;50.762;7.000;2024-01-15T08:19:22;16.03;;;10.50;;
14883;SDS011;7534;50.762;7.000;2024-01-15T08:21:48;13.03;;;9.43;;
14883;SDS011;7534;50.762;7.000;2024-01-15T08:24:14;15.10;;;9.17;;
14883;SDS011;7534;50.762;7.000;2024-01-15T08:26:40;15.20;;;9.43;;
14883;SDS011;7534;50.762;7.000;2024-01-15T08:29:06;14.27;;;9.07;;
14883;SDS011;7534;50.762;7.000;2024-01-15T08:31:31;14.50;;;10.07;;
14883;SDS011;7534;50.762;7.000;2024-01-15T08:33:57;15.87;;;9.00;;
14883;SDS011;7534;50.762;7.000;2024-01-15T08:36:24;14.77;;;9.20;;
14883;SDS011;7534;50.762;7.000;2024-01-15T08:38:50;15.60;;;9.57;;
14883;SDS011;7534;50.762;7.000;2024-01-15T08:41:15;13.47;;;9.33;;
14883;SDS011;7534;50.762;7.000;2024-01-15T08:43:41;15.73;;;9.90;;
14883;SDS011;7534;50.762;7.000;2024-01-15T08:46:07;16.13;;;9.70;;
14883;SDS011;7534;50.762;7.000;2024-01-15T08:48:32;12.50;;;8.80;;
14883;SDS011;7534;50.762;7.000;2024-01-15T08:50:58;13.80;;;9.80;;
14883;SDS011;7534;50.762;7.000;2024-01-15T08:53:24;14.83;;;9.73;;
14883;SDS011;7534;50.762;7.000;2024-01-15T08:55:49;13.97;;;9.53;;
14883;SDS011;7534;50.762;7.000;2024-01-15T08:58:15;14.23;;;9.83;;
14883;SDS011;7534;50.762;7.000;2024-01-15T09:00:41;11.83;;;9.07;;
14883;SDS011;7534;50.762;7.000;2024-01-15T09:03:07;16.30;;;10.10;;
14883;SDS011;7534;50.762;7.000;2024-01-15T09:05:33;13.40;;;9.70;;
14883;SDS011;7534;50.762;7.000;2024-01-15T09:07:59;17.90;;;10.10;;
14883;SDS011;7534;50.762;7.000;2024-01-15T09:10:25;15.27;;;8.87;;
14883;SDS011;7534;50.762;7.000;2024-01-15T09:12:51;13.70;;;8.97;;
14883;SDS011;7534;50.762;7.000;2024-01-15T09:15:17;14.80;;;10.03;;
14883;SDS011;7534;50.762;7.000;2024-01-15T09:17:42;12.73;;;9.17;;
14883;SDS011;7534;50.762;7.000;2024-01-15T09:20:08;12.03;;;8.60;;
14883;SDS011;7534;50.762;7.000;2024-01-15T09:22:35;13.30;;;8.10;;
14883;SDS011;7534;50.762;7.000;2024-01-15T09:25:05;12.80;;;8.30;;
14883;SDS011;7534;50.762;7.000;2024-01-15T09:27:31;10.77;;;8.27;;
14883;SDS011;7534;50.762;7.000;2024-01-15T09:29:57;12.10;;;8.70;;
14883;SDS011;7534;50.762;7.000;2024-01-15T09:32:23;11.40;;;7.33;;
14883;SDS011;7534;50.762;7.000;2024-01-15T09:34:48;12.47;;;7.70;;
14883;SDS011;7534;50.762;7.000;2024-01-15T09:37:15;9.93;;;7.17;;
14883;SDS011;7534;50.762;7.000;2024-01-15T09:39:41;11.17;;;7.20;;
14883;SDS011;7534;50.762;7.000;2024-01-15T09:42:07;12.00;;;8.90;;
14883;SDS011;7534;50.762;7.000;2024-01-15T09:44:34;12.05;;;8.85;;
14883;SDS011;7534;50.762;7.000;2024-01-15T09:47:00;11.83;;;7.73;;
14883;SDS011;7534;50.762;7.000;2024-01-15T09:49:26;10.77;;;7.20;;
14883;SDS011;7534;50.762;7.000;2024-01-15T09:51:52;10.20;;;7.53;;
14883;SDS011;7534;50.762;7.000;2024-01-15T09:54:19;11.03;;;7.00;;
14883;SDS011;7534;50.762;7.000;2024-01-15T09:56:46;9.90;;;7.73;;
14883;SDS011;7534;50.762;7.000;2024-01-15T09:59:14;8.37;;;7.13;;
14883;SDS011;7534;50.762;7.000;2024-01-15T10:01:44;10.18;;;8.98;;
14883;SDS011;7534;50.762;7.000;2024-01-15T10:04:12;9.10;;;8.07;;
14883;SDS011;7534;50.762;7.000;2024-01-15T10:06:39;8.90;;;7.50;;
14883;SDS011;7534;50.762;7.000;2024-01-15T10:09:10;11.27;;;7.73;;
14883;SDS011;7534;50.762;7.000;2024-01-15T10:11:39;10.33;;;8.00;;
14883;SDS011;7534;50.762;7.000;2024-01-15T10:14:06;11.73;;;8.07;;
14883;SDS011;7534;50.762;7.000;2024-01-15T10:16:34;11.33;;;7.43;;
14883;SDS011;7534;50.762;7.000;2024-01-15T10:19:01;14.33;;;8.00;;
14883;SDS011;7534;50.762;7.000;2024-01-15T10:21:28;10.77;;;8.50;;
14883;SDS011;7534;50.762;7.000;2024-01-15T10:24:01;12.00;;;8.03;;
14883;SDS011;7534;50.762;7.000;2024-01-15T10:26:28;9.10;;;7.20;;
14883;SDS011;7534;50.762;7.000;2024-01-15T10:28:54;9.70;;;6.77;;
14883;SDS011;7534;50.762;7.000;2024-01-15T10:31:20;11.57;;;9.83;;
14883;SDS011;7534;50.762;7.000;2024-01-15T10:33:47;11.88;;;9.50;;
14883;SDS011;7534;50.762;7.000;2024-01-15T10:36:16;9.93;;;8.40;;
14883;SDS011;7534;50.762;7.000;2024-01-15T10:38:43;10.33;;;8.37;;
14883;SDS011;7534;50.762;7.000;2024-01-15T10:41:09;8.60;;;7.30;;
14883;SDS011;7534;50.762;7.000;2024-01-15T10:43:35;11.27;;;7.63;;
14883;SDS011;7534;50.762;7.000;2024-01-15T10:46:01;10.67;;;8.40;;
14883;SDS011;7534;50.762;7.000;2024-01-15T10:48:27;9.17;;;6.47;;
14883;SDS011;7534;50.762;7.000;2024-01-15T10:50:55;8.47;;;7.27;;
14883;SDS011;7534;50.762;7.000;2024-01-15T10:53:24;7.53;;;6.70;;
14883;SDS011;7534;50.762;7.000;2024-01-15T10:55:50;7.57;;;6.77;;
14883;SDS011;7534;50.762;7.000;2024-01-15T10:58:19;9.23;;;7.10;;
14883;SDS011;7534;50.762;7.000;2024-01-15T11:00:45;8.77;;;6.43;;
14883;SDS011;7534;50.762;7.000;2024-01-15T11:03:11;7.87;;;7.07;;
14883;SDS011;7534;50.762;7.000;2024-01-15T11:05:38;8.10;;;7.10;;
14883;SDS011;7534;50.762;7.000;2024-01-15T11:08:06;8.67;;;7.03;;
14883;SDS011;7534;50.762;7.000;2024-01-15T11:10:39;9.23;;;7.07;;
14883;SDS011;7534;50.762;7.000;2024-01-15T11:16:05;8.10;;;6.80;;
14883;SDS011;7534;50.762;7.000;2024-01-15T11:18:42;9.80;;;6.70;;
14883;SDS011;7534;50.762;7.000;2024-01-15T11:21:27;8.23;;;7.23;;
14883;SDS011;7534;50.762;7.000;2024-01-15T11:34:20;8.93;;;8.00;;
14883;SDS011;7534;50.762;7.000;2024-01-15T11:37:16;9.13;;;7.77;;
14883;SDS011;7534;50.762;7.000;2024-01-15T11:39:43;10.30;;;7.57;;
14883;SDS011;7534;50.762;7.000;2024-01-15T11:42:10;8.33;;;7.27;;
14883;SDS011;7534;50.762;7.000;2024-01-15T11:44:39;9.27;;;7.73;;
14883;SDS011;7534;50.762;7.000;2024-01-15T11:47:06;8.83;;;7.60;;
14883;SDS011;7534;50.762;7.000;2024-01-15T11:52:40;12.07;;;7.83;;
14883;SDS011;7534;50.762;7.000;2024-01-15T11:55:19;10.60;;;7.57;;
14883;SDS011;7534;50.762;7.000;2024-01-15T11:58:11;10.37;;;7.93;;
14883;SDS011;7534;50.762;7.000;2024-01-15T12:00:50;10.07;;;7.87;;
14883;SDS011;7534;50.762;7.000;2024-01-15T12:03:22;10.23;;;7.47;;
14883;SDS011;7534;50.762;7.000;2024-01-15T12:05:48;9.90;;;7.90;;
14883;SDS011;7534;50.762;7.000;2024-01-15T12:08:14;12.65;;;9.18;;
14883;SDS011;7534;50.762;7.000;2024-01-15T12:10:41;11.95;;;9.38;;
14883;SDS011;7534;50.762;7.000;2024-01-15T12:13:15;11.87;;;8.33;;
14883;SDS011;7534;50.762;7.000;2024-01-15T12:15:43;9.80;;;7.90;;
14883;SDS011;7534;50.762;7.000;2024-01-15T12:18:11;10.33;;;7.20;;
14883;SDS011;7534;50.762;7.000;2024-01-15T12:20:42;10.83;;;7.00;;
14883;SDS011;7534;50.762;7.000;2024-01-15T12:23:09;11.03;;;6.40;;
14883;SDS011;7534;50.762;7.000;2024-01-15T12:25:38;10.57;;;6.60;;
14883;SDS011;7534;50.762;7.000;2024-01-15T12:28:05;10.73;;;5.83;;
14883;SDS011;7534;50.762;7.000;2024-01-15T12:30:33;11.07;;;6.00;;
14883;SDS011;7534;50.762;7.000;2024-01-15T12:33:04;12.03;;;6.07;;
14883;SDS011;7534;50.762;7.000;2024-01-15T12:35:30;7.97;;;5.53;;
14883;SDS011;7534;50.762;7.000;2024-01-15T12:37:59;8.40;;;5.47;;
14883;SDS011;7534;50.762;7.000;2024-01-15T12:40:27;8.73;;;6.23;;
14883;SDS011;7534;50.762;7.000;2024-01-15T12:42:53;9.13;;;5.40;;
14883;SDS011;7534;50.762;7.000;2024-01-15T12:45:19;8.00;;;5.70;;
14883;SDS011;7534;50.762;7.000;2024-01-15T12:47:45;11.73;;;5.73;;
14883;SDS011;7534;50.762;7.000;2024-01-15T12:50:12;6.63;;;5.07;;
14883;SDS011;7534;50.762;7.000;2024-01-15T12:52:41;10.43;;;5.20;;
14883;SDS011;7534;50.762;7.000;2024-01-15T12:55:07;8.73;;;4.70;;
14883;SDS011;7534;50.762;7.000;2024-01-15T12:57:34;7.10;;;5.13;;
14883;SDS011;7534;50.762;7.000;2024-01-15T13:00:01;9.17;;;5.13;;
14883;SDS011;7534;50.762;7.000;2024-01-15T13:02:32;10.77;;;5.17;;
14883;SDS011;7534;50.762;7.000;2024-01-15T13:04:58;7.30;;;4.83;;
14883;SDS011;7534;50.762;7.000;2024-01-15T13:07:24;8.00;;;4.63;;
14883;SDS011;7534;50.762;7.000;2024-01-15T13:09:50;11.33;;;4.57;;
14883;SDS011;7534;50.762;7.000;2024-01-15T13:12:18;8.00;;;4.57;;
14883;SDS011;7534;50.762;7.000;2024-01-15T13:14:46;7.97;;;4.67;;
14883;SDS011;7534;50.762;7.000;2024-01-15T13:17:12;6.40;;;4.60;;
14883;SDS011;7534;50.762;7.000;2024-01-15T13:19:39;7.53;;;4.20;;
14883;SDS011;7534;50.762;7.000;2024-01-15T13:22:06;9.80;;;4.17;;
14883;SDS011;7534;50.762;7.000;2024-01-15T13:24:34;7.33;;;3.93;;
14883;SDS011;7534;50.762;7.000;2024-01-15T13:27:01;6.70;;;4.13;;
14883;SDS011;7534;50.762;7.000;2024-01-15T13:29:29;7.80;;;4.13;;
14883;SDS011;7534;50.762;7.000;2024-01-15T13:31:55;7.87;;;4.40;;
14883;SDS011;7534;50.762;7.000;2024-01-15T13:34:20;7.17;;;3.80;;
14883;SDS011;7534;50.762;7.000;2024-01-15T13:36:46;8.27;;;4.60;;
14883;SDS011;7534;50.762;7.000;2024-01-15T13:39:12;8.23;;;3.60;;
14883;SDS011;7534;50.762;7.000;2024-01-15T13:41:38;6.27;;;3.87;;
14883;SDS011;7534;50.762;7.000;2024-01-15T13:44:04;5.90;;;3.90;;
14883;SDS011;7534;50.762;7.000;2024-01-15T13:46:30;6.30;;;3.70;;
14883;SDS011;7534;50.762;7.000;2024-01-15T13:48:58;6.10;;;3.70;;
14883;SDS011;7534;50.762;7.000;2024-01-15T13:51:24;5.53;;;3.90;;
14883;SDS011;7534;50.762;7.000;2024-01-15T13:53:50;4.77;;;3.50;;
14883;SDS011;7534;50.762;7.000;2024-01-15T13:56:16;6.47;;;4.53;;
14883;SDS011;7534;50.762;7.000;2024-01-15T13:58:42;7.23;;;4.20;;
14883;SDS011;7534;50.762;7.000;2024-01-15T14:01:08;5.70;;;3.60;;
14883;SDS011;7534;50.762;7.000;2024-01-15T14:03:34;5.27;;;3.30;;
14883;SDS011;7534;50.762;7.000;2024-01-15T14:06:01;5.57;;;3.83;;
14883;SDS011;7534;50.762;7.000;2024-01-15T14:08:33;5.13;;;4.10;;
14883;SDS011;7534;50.762;7.000;2024-01-15T14:11:01;5.30;;;4.07;;
14883;SDS011;7534;50.762;7.000;2024-01-15T14:13:31;4.53;;;3.97;;
14883;SDS011;7534;50.762;7.000;2024-01-15T14:15:57;4.80;;;3.63;;
14883;SDS011;7534;50.762;7.000;2024-01-15T14:18:24;4.37;;;3.70;;
14883;SDS011;7534;50.762;7.000;2024-01-15T14:20:49;3.90;;;3.07;;
14883;SDS011;7534;50.762;7.000;2024-01-15T14:23:15;4.97;;;3.63;;
14883;SDS011;7534;50.762;7.000;2024-01-15T14:25:41;4.70;;;3.47;;
14883;SDS011;7534;50.762;7.000;2024-01-15T14:28:06;4.77;;;3.07;;
14883;SDS011;7534;50.762;7.000;2024-01-15T14:30:32;3.87;;;3.27;;
14883;SDS011;7534;50.762;7.000;2024-01-15T14:32:58;6.03;;;3.10;;
14883;SDS011;7534;50.762;7.000;2024-01-15T14:35:23;4.97;;;3.53;;
14883;SDS011;7534;50.762;7.000;2024-01-15T14:37:49;4.40;;;3.03;;
14883;SDS011;7534;50.762;7.000;2024-01-15T14:40:15;3.60;;;3.03;;
14883;SDS011;7534;50.762;7.000;2024-01-15T14:42:41;4.80;;;3.07;;
14883;SDS011;7534;50.762;7.000;2024-01-15T14:45:07;3.57;;;3.00;;
14883;SDS011;7534;50.762;7.000;2024-01-15T14:47:36;8.73;;;3.53;;
14883;SDS011;7534;50.762;7.000;2024-01-15T14:50:05;3.63;;;2.90;;
14883;SDS011;7534;50.762;7.000;2024-01-15T14:52:35;4.70;;;3.00;;
14883;SDS011;7534;50.762;7.000;2024-01-15T14:55:01;4.83;;;2.90;;
14883;SDS011;7534;50.762;7.000;2024-01-15T14:57:27;3.83;;;2.97;;
14883;SDS011;7534;50.762;7.000;2024-01-15T14:59:54;5.67;;;3.40;;